createdAt,value
2023-04-07T00:01:32.650Z,99023.97
2023-04-07T00:03:59.731Z,99024.72
2023-04-07T00:06:27.522Z,99033.34
2023-04-07T00:08:54.591Z,99029.09
2023-04-07T00:11:21.224Z,99029.34
2023-04-07T00:13:47.950Z,99019.19
2023-04-07T00:16:14.720Z,99028.03
2023-04-07T00:18:41.608Z,99026.50
2023-04-07T00:21:08.239Z,99026.59
2023-04-07T00:23:34.972Z,99011.03
2023-04-07T00:26:01.805Z,99025.06
2023-04-07T00:28:28.505Z,99016.31
2023-04-07T00:30:55.143Z,99020.97
2023-04-07T00:33:21.936Z,99017.44
2023-04-07T00:35:48.632Z,99017.94
2023-04-07T00:38:15.336Z,99019.84
2023-04-07T00:40:41.953Z,99023.34
2023-04-07T00:43:08.762Z,99016.59
2023-04-07T00:45:36.618Z,99015.22
2023-04-07T00:48:03.600Z,99006.78
2023-04-07T00:50:30.308Z,99018.28
2023-04-07T00:52:57.235Z,99014.25
2023-04-07T00:55:24.009Z,99012.69
2023-04-07T00:57:51.950Z,99010.06
2023-04-07T01:00:18.758Z,99010.25
2023-04-07T01:02:52.263Z,99019.13
2023-04-07T01:05:41.352Z,99002.78
2023-04-07T01:08:26.384Z,99001.31
2023-04-07T01:10:53.170Z,99002.19
2023-04-07T01:13:26.285Z,99004.91
2023-04-07T01:15:58.523Z,99000.53
2023-04-07T01:18:31.556Z,98999.88
2023-04-07T01:21:04.638Z,98995.94
2023-04-07T01:24:09.857Z,98998.72
2023-04-07T01:26:38.715Z,98999.72
2023-04-07T01:29:37.895Z,98992.03
2023-04-07T01:32:06.537Z,98993.91
2023-04-07T01:34:34.423Z,98995.78
2023-04-07T01:37:03.052Z,98995.91
2023-04-07T01:39:30.471Z,98987.31
2023-04-07T01:41:58.916Z,98993.38
2023-04-07T01:44:26.693Z,98988.88
2023-04-07T01:46:55.669Z,98990.72
2023-04-07T01:49:25.312Z,98989.97
2023-04-07T01:51:52.486Z,98993.56
2023-04-07T01:54:20.644Z,98992.09
2023-04-07T01:56:47.304Z,98989.50
2023-04-07T01:59:13.964Z,98989.50
2023-04-07T02:01:41.056Z,98991.44
2023-04-07T02:04:25.833Z,98992.41
2023-04-07T02:06:58.776Z,98989.13
2023-04-07T02:09:28.884Z,98988.28
2023-04-07T02:11:59.057Z,98986.47
2023-04-07T02:14:26.109Z,98979.44
2023-04-07T02:16:54.177Z,98983.88
2023-04-07T02:19:21.278Z,98985.78
2023-04-07T02:21:50.864Z,98981.44
2023-04-07T02:24:21.091Z,98984.88
2023-04-07T02:26:47.999Z,98984.94
2023-04-07T02:29:14.704Z,98979.81
2023-04-07T02:31:41.506Z,98977.97
2023-04-07T02:34:08.253Z,98983.41
2023-04-07T02:36:34.991Z,98979.44
2023-04-07T02:39:01.635Z,98976.78
2023-04-07T02:41:28.324Z,98978.44
2023-04-07T02:43:55.362Z,98973.13
2023-04-07T02:46:22.195Z,98979.91
2023-04-07T02:48:48.845Z,98986.97
2023-04-07T02:51:15.488Z,98985.97
2023-04-07T02:53:42.066Z,98983.19
2023-04-07T02:56:08.813Z,98983.19
2023-04-07T02:58:35.438Z,98984.03
2023-04-07T03:01:02.149Z,98977.97
2023-04-07T03:03:29.132Z,98983.06
2023-04-07T03:05:55.906Z,98979.44
2023-04-07T03:08:22.504Z,98974.88
2023-04-07T03:10:49.283Z,98979.09
2023-04-07T03:13:19.303Z,98977.25
2023-04-07T03:15:46.168Z,98977.13
2023-04-07T03:18:13.015Z,98973.63
2023-04-07T03:20:41.946Z,98971.72
2023-04-07T03:23:08.959Z,98965.56
2023-04-07T03:25:35.809Z,98968.09
2023-04-07T03:28:02.469Z,98969.88
2023-04-07T03:30:29.114Z,98965.50
2023-04-07T03:32:55.869Z,98969.72
2023-04-07T03:35:22.683Z,98967.00
2023-04-07T03:37:49.495Z,98961.84
2023-04-07T03:40:16.371Z,98958.28
2023-04-07T03:42:43.497Z,98955.69
2023-04-07T03:45:10.541Z,98960.09
2023-04-07T03:47:37.442Z,98962.69
2023-04-07T03:50:04.419Z,98967.78
2023-04-07T03:52:31.045Z,98961.81
2023-04-07T03:54:57.648Z,98957.50
2023-04-07T03:57:24.396Z,98957.75
2023-04-07T03:59:51.364Z,98962.94
2023-04-07T04:02:19.232Z,98949.88
2023-04-07T04:04:45.960Z,98953.19
2023-04-07T04:07:12.736Z,98956.41
2023-04-07T04:09:39.281Z,98955.69
2023-04-07T04:12:06.199Z,98954.97
2023-04-07T04:14:32.850Z,98958.25
2023-04-07T04:16:59.450Z,98960.84
2023-04-07T04:19:26.447Z,98961.50
2023-04-07T04:21:53.199Z,98960.22
2023-04-07T04:24:19.819Z,98950.84
2023-04-07T04:26:46.492Z,98951.63
2023-04-07T04:29:13.098Z,98945.50
2023-04-07T04:31:39.824Z,98949.19
2023-04-07T04:34:06.886Z,98951.75
2023-04-07T04:36:33.685Z,98946.66
2023-04-07T04:39:00.456Z,98948.44
2023-04-07T04:41:27.205Z,98956.28
2023-04-07T04:43:53.938Z,98960.91
2023-04-07T04:46:20.615Z,98954.25
2023-04-07T04:48:47.218Z,98944.63
2023-04-07T04:51:13.855Z,98954.78
2023-04-07T04:53:40.796Z,98959.19
2023-04-07T04:56:07.740Z,98959.00
2023-04-07T04:58:35.217Z,98963.31
2023-04-07T05:01:02.021Z,98955.44
2023-04-07T05:03:29.262Z,98959.81
2023-04-07T05:05:56.251Z,98960.66
2023-04-07T05:08:22.919Z,98961.50
2023-04-07T05:10:49.721Z,98969.31
2023-04-07T05:13:16.470Z,98962.22
2023-04-07T05:15:43.348Z,98962.22
2023-04-07T05:18:10.028Z,98968.41
2023-04-07T05:20:36.702Z,98959.59
2023-04-07T05:23:03.614Z,98965.81
2023-04-07T05:25:30.442Z,98968.41
2023-04-07T05:27:59.737Z,98966.59
2023-04-07T05:30:26.534Z,98973.44
2023-04-07T05:32:53.937Z,98969.13
2023-04-07T05:35:20.838Z,98966.47
2023-04-07T05:37:47.457Z,98966.34
2023-04-07T05:40:14.601Z,98969.88
2023-04-07T05:42:41.676Z,98964.41
2023-04-07T05:45:09.814Z,98965.13
2023-04-07T05:47:36.459Z,98976.38
2023-04-07T05:50:03.293Z,98971.19
2023-04-07T05:52:29.939Z,98975.34
2023-04-07T05:54:56.570Z,98970.91
2023-04-07T05:57:23.224Z,98985.41
2023-04-07T05:59:50.004Z,98981.69
2023-04-07T06:02:16.979Z,98979.88
2023-04-07T06:04:43.665Z,98988.66
2023-04-07T06:07:10.394Z,98988.47
2023-04-07T06:09:36.975Z,98984.84
2023-04-07T06:12:06.856Z,98985.44
2023-04-07T06:14:33.505Z,98992.19
2023-04-07T06:17:00.506Z,98994.69
2023-04-07T06:19:30.183Z,98997.78
2023-04-07T06:21:56.821Z,98988.16
2023-04-07T06:24:25.279Z,98995.78
2023-04-07T06:26:55.213Z,98992.84
2023-04-07T06:29:21.972Z,98992.47
2023-04-07T06:31:48.706Z,98991.25
2023-04-07T06:34:15.330Z,98991.78
2023-04-07T06:36:42.036Z,98992.28
2023-04-07T06:39:08.841Z,98980.66
2023-04-07T06:41:35.571Z,98987.78
2023-04-07T06:44:02.289Z,98978.78
2023-04-07T06:46:29.199Z,98986.03
2023-04-07T06:48:56.130Z,98987.31
2023-04-07T06:51:22.714Z,98991.19
2023-04-07T06:53:49.817Z,98991.69
2023-04-07T06:56:16.677Z,98987.72
2023-04-07T06:58:43.449Z,98987.13
2023-04-07T07:01:10.153Z,98981.28
2023-04-07T07:03:36.905Z,98979.84
2023-04-07T07:06:03.732Z,98977.41
2023-04-07T07:08:30.926Z,98973.56
2023-04-07T07:10:57.821Z,98981.59
2023-04-07T07:13:26.571Z,98980.75
2023-04-07T07:15:53.871Z,98977.06
2023-04-07T07:18:20.659Z,98977.50
2023-04-07T07:20:47.374Z,98973.63
2023-04-07T07:23:14.031Z,98973.44
2023-04-07T07:25:40.759Z,98975.28
2023-04-07T07:28:07.421Z,98979.31
2023-04-07T07:30:34.044Z,98977.31
2023-04-07T07:33:00.787Z,98976.22
2023-04-07T07:35:27.461Z,98974.22
2023-04-07T07:37:54.157Z,98973.59
2023-04-07T07:40:20.954Z,98970.28
2023-04-07T07:42:47.801Z,98971.56
2023-04-07T07:45:14.663Z,98970.56
2023-04-07T07:47:42.119Z,98972.31
2023-04-07T07:50:09.005Z,98966.94
2023-04-07T07:52:35.738Z,98975.09
2023-04-07T07:55:02.828Z,98970.59
2023-04-07T07:57:31.222Z,98962.13
2023-04-07T07:59:57.948Z,98967.19
2023-04-07T08:02:30.822Z,98967.44
2023-04-07T08:04:58.112Z,98968.91
2023-04-07T08:07:24.885Z,98964.47
2023-04-07T08:09:51.589Z,98958.34
2023-04-07T08:12:18.188Z,98961.94
2023-04-07T08:14:45.194Z,98964.34
2023-04-07T08:17:12.585Z,98968.56
2023-04-07T08:19:39.689Z,98964.47
2023-04-07T08:22:06.479Z,98961.47
2023-04-07T08:24:33.151Z,98961.22
2023-04-07T08:26:59.971Z,98960.75
2023-04-07T08:29:26.594Z,98966.16
2023-04-07T08:31:53.323Z,98967.59
2023-04-07T08:34:21.310Z,98965.81
2023-04-07T08:36:48.252Z,98963.41
2023-04-07T08:39:14.856Z,98968.81
2023-04-07T08:41:42.528Z,98965.78
2023-04-07T08:44:10.659Z,98968.91
2023-04-07T08:46:39.925Z,98974.47
2023-04-07T08:49:15.857Z,98970.84
2023-04-07T08:51:47.710Z,98964.94
2023-04-07T08:54:18.760Z,98970.72
2023-04-07T08:56:45.713Z,98965.31
2023-04-07T08:59:14.758Z,98965.56
2023-04-07T09:01:42.049Z,98966.28
2023-04-07T09:04:10.555Z,98967.22
2023-04-07T09:06:38.100Z,98966.03
2023-04-07T09:09:08.240Z,98974.19
2023-04-07T09:11:40.300Z,98963.41
2023-04-07T09:14:07.775Z,98973.88
2023-04-07T09:16:35.259Z,98970.13
2023-04-07T09:19:01.981Z,98966.28
2023-04-07T09:21:47.835Z,98974.69
2023-04-07T09:24:29.048Z,98978.53
2023-04-07T09:27:18.018Z,98962.88
2023-04-07T09:29:47.038Z,98964.09
2023-04-07T09:32:36.593Z,98963.78
2023-04-07T09:35:03.308Z,98963.91
2023-04-07T09:37:29.917Z,98961.44
2023-04-07T09:39:56.542Z,98956.72
2023-04-07T09:42:23.323Z,98958.13
2023-04-07T09:44:50.053Z,98956.31
2023-04-07T09:47:17.292Z,98953.13
2023-04-07T09:49:56.065Z,98957.94
2023-04-07T09:52:25.579Z,98948.78
2023-04-07T09:54:53.017Z,98956.25
2023-04-07T09:57:21.218Z,98946.19
2023-04-07T09:59:48.913Z,98942.44
2023-04-07T10:02:16.254Z,98943.81
2023-04-07T10:04:43.896Z,98937.50
2023-04-07T10:07:10.727Z,98936.72
2023-04-07T10:09:37.357Z,98942.59
2023-04-07T10:12:05.232Z,98938.63
2023-04-07T10:14:32.582Z,98940.56
2023-04-07T10:17:04.062Z,98938.44
2023-04-07T10:19:35.242Z,98942.91
2023-04-07T10:22:03.810Z,98950.84
2023-04-07T10:24:52.033Z,98944.13
2023-04-07T10:27:27.654Z,98942.53
2023-04-07T10:29:54.945Z,98942.38
2023-04-07T10:32:21.954Z,98942.03
2023-04-07T10:34:51.318Z,98940.06
2023-04-07T10:37:21.277Z,98941.22
2023-04-07T10:40:19.126Z,98950.50
2023-04-07T10:42:49.191Z,98940.75
2023-04-07T10:45:15.878Z,98944.25
2023-04-07T10:48:04.231Z,98931.44
2023-04-07T10:50:31.112Z,98938.28
2023-04-07T10:53:10.782Z,98939.50
2023-04-07T10:55:39.560Z,98939.75
2023-04-07T10:58:24.590Z,98942.25
2023-04-07T11:00:57.651Z,98938.22
2023-04-07T11:03:25.734Z,98943.72
2023-04-07T11:05:52.581Z,98942.31
2023-04-07T11:08:42.336Z,98941.69
2023-04-07T11:11:11.173Z,98943.28
2023-04-07T11:13:48.087Z,98942.00
2023-04-07T11:16:17.521Z,98934.34
2023-04-07T11:18:44.677Z,98938.41
2023-04-07T11:21:11.459Z,98931.94
2023-04-07T11:23:46.453Z,98941.56
2023-04-07T11:26:15.102Z,98938.34
2023-04-07T11:28:53.038Z,98933.38
2023-04-07T11:31:23.604Z,98929.81
2023-04-07T11:33:59.384Z,98936.69
2023-04-07T11:36:32.364Z,98928.22
2023-04-07T11:38:59.932Z,98929.00
2023-04-07T11:41:29.155Z,98934.16
2023-04-07T11:44:06.945Z,98927.75
2023-04-07T11:46:33.715Z,98934.47
2023-04-07T11:49:11.621Z,98934.34
2023-04-07T11:51:38.342Z,98940.66
2023-04-07T11:54:05.350Z,98925.44
2023-04-07T11:56:45.792Z,98925.16
2023-04-07T11:59:23.870Z,98925.69
2023-04-07T12:01:51.729Z,98924.66
2023-04-07T12:04:19.670Z,98923.41
2023-04-07T12:06:48.661Z,98920.16
2023-04-07T12:09:36.490Z,98920.66
2023-04-07T12:12:08.355Z,98917.06
2023-04-07T12:14:35.662Z,98918.50
2023-04-07T12:17:03.753Z,98915.97
2023-04-07T12:19:36.128Z,98913.16
2023-04-07T12:22:03.801Z,98910.84
2023-04-07T12:24:32.354Z,98922.66
2023-04-07T12:26:59.651Z,98918.13
2023-04-07T12:29:26.346Z,98918.53
2023-04-07T12:31:53.077Z,98905.66
2023-04-07T12:34:19.836Z,98915.34
2023-04-07T12:36:46.513Z,98908.00
2023-04-07T12:39:13.275Z,98916.88
2023-04-07T12:41:40.088Z,98911.31
2023-04-07T12:44:07.046Z,98913.31
2023-04-07T12:46:33.783Z,98916.59
2023-04-07T12:49:01.157Z,98913.22
2023-04-07T12:51:28.504Z,98919.91
2023-04-07T12:53:55.206Z,98921.53
2023-04-07T12:56:24.564Z,98913.19
2023-04-07T12:58:51.272Z,98919.44
2023-04-07T13:01:17.951Z,98919.88
2023-04-07T13:03:45.201Z,98903.22
2023-04-07T13:06:12.240Z,98912.13
2023-04-07T13:08:39.988Z,98914.25
2023-04-07T13:11:07.581Z,98912.53
2023-04-07T13:13:34.494Z,98913.84
2023-04-07T13:16:01.342Z,98902.75
2023-04-07T13:18:28.052Z,98911.41
2023-04-07T13:21:14.337Z,98904.06
2023-04-07T13:23:43.894Z,98902.28
2023-04-07T13:26:11.451Z,98891.69
2023-04-07T13:28:38.940Z,98891.63
2023-04-07T13:31:05.815Z,98890.91
2023-04-07T13:33:32.503Z,98888.72
2023-04-07T13:35:59.255Z,98893.56
2023-04-07T13:38:26.444Z,98888.41
2023-04-07T13:40:53.036Z,98887.56
2023-04-07T13:43:20.268Z,98896.09
2023-04-07T13:45:46.998Z,98885.38
2023-04-07T13:48:13.713Z,98894.75
2023-04-07T13:50:40.999Z,98888.84
2023-04-07T13:53:07.785Z,98884.06
2023-04-07T13:55:34.469Z,98884.25
2023-04-07T13:58:01.331Z,98891.41
2023-04-07T14:00:28.197Z,98890.56
2023-04-07T14:02:56.256Z,98898.59
2023-04-07T14:05:24.734Z,98886.84
2023-04-07T14:07:51.547Z,98889.28
2023-04-07T14:10:18.427Z,98902.22
2023-04-07T14:12:45.156Z,98898.38
2023-04-07T14:15:11.975Z,98900.91
2023-04-07T14:17:38.770Z,98902.31
2023-04-07T14:20:06.542Z,98897.56
2023-04-07T14:22:33.320Z,98899.25
2023-04-07T14:25:00.040Z,98893.53
2023-04-07T14:27:27.080Z,98904.41
2023-04-07T14:29:56.250Z,98900.59
2023-04-07T14:32:22.855Z,98896.28
2023-04-07T14:34:50.496Z,98899.47
2023-04-07T14:37:18.763Z,98893.06
2023-04-07T14:39:55.291Z,98902.78
2023-04-07T14:42:26.123Z,98903.75
2023-04-07T14:44:53.221Z,98892.38
2023-04-07T14:47:21.039Z,98893.41
2023-04-07T14:49:50.027Z,98888.41
2023-04-07T14:52:19.490Z,98892.56
2023-04-07T14:54:46.171Z,98893.75
2023-04-07T14:57:12.820Z,98900.44
2023-04-07T14:59:39.481Z,98893.06
2023-04-07T15:02:06.822Z,98890.75
2023-04-07T15:04:33.806Z,98904.59
2023-04-07T15:07:00.489Z,98898.03
2023-04-07T15:09:27.151Z,98901.44
2023-04-07T15:11:54.157Z,98902.06
2023-04-07T15:14:20.812Z,98898.44
2023-04-07T15:16:50.262Z,98896.59
2023-04-07T15:19:17.079Z,98904.09
2023-04-07T15:21:43.668Z,98902.44
2023-04-07T15:24:10.272Z,98901.91
2023-04-07T15:26:36.901Z,98907.09
2023-04-07T15:29:03.539Z,98908.66
2023-04-07T15:31:30.421Z,98917.66
2023-04-07T15:33:57.106Z,98912.91
2023-04-07T15:36:23.768Z,98914.91
2023-04-07T15:38:50.399Z,98915.28
2023-04-07T15:41:17.437Z,98908.88
2023-04-07T15:43:44.104Z,98913.31
2023-04-07T15:46:10.811Z,98912.00
2023-04-07T15:48:37.435Z,98917.97
2023-04-07T15:51:04.404Z,98927.91
2023-04-07T15:53:31.133Z,98917.44
2023-04-07T15:55:57.978Z,98923.53
2023-04-07T15:58:24.659Z,98933.25
2023-04-07T16:00:51.763Z,98923.78
2023-04-07T16:03:18.599Z,98934.91
2023-04-07T16:05:45.482Z,98936.25
2023-04-07T16:08:13.690Z,98936.03
2023-04-07T16:10:40.848Z,98945.25
2023-04-07T16:13:07.483Z,98950.72
2023-04-07T16:15:40.823Z,98951.47
2023-04-07T16:18:14.097Z,98959.69
2023-04-07T16:20:40.856Z,98956.84
2023-04-07T16:23:07.587Z,98965.84
2023-04-07T16:25:34.308Z,98960.31
2023-04-07T16:28:00.978Z,98966.22
2023-04-07T16:30:27.750Z,98970.50
2023-04-07T16:32:54.443Z,98972.63
2023-04-07T16:35:21.474Z,98971.19
2023-04-07T16:37:49.807Z,98973.59
2023-04-07T16:40:16.524Z,98971.25
2023-04-07T16:42:43.226Z,98982.22
2023-04-07T16:45:10.436Z,98979.41
2023-04-07T16:47:38.200Z,98982.47
2023-04-07T16:50:05.895Z,98996.63
2023-04-07T16:52:32.812Z,98995.25
2023-04-07T16:55:01.052Z,99000.56
2023-04-07T16:57:27.708Z,99005.28
2023-04-07T16:59:54.422Z,99010.31
2023-04-07T17:02:21.235Z,99012.25
2023-04-07T17:04:48.094Z,99011.19
2023-04-07T17:07:14.732Z,99013.97
2023-04-07T17:09:41.366Z,99011.00
2023-04-07T17:12:08.059Z,99018.22
2023-04-07T17:14:34.815Z,99017.38
2023-04-07T17:17:02.150Z,99023.22
2023-04-07T17:19:29.064Z,99031.53
2023-04-07T17:21:55.759Z,99036.41
2023-04-07T17:24:22.376Z,99043.22
2023-04-07T17:26:49.056Z,99042.88
2023-04-07T17:29:16.743Z,99052.22
2023-04-07T17:31:43.979Z,99054.66
2023-04-07T17:34:11.962Z,99057.25
2023-04-07T17:36:39.044Z,99062.25
2023-04-07T17:39:06.069Z,99061.06
2023-04-07T17:41:34.732Z,99066.75
2023-04-07T17:44:02.193Z,99081.59
2023-04-07T17:46:29.842Z,99083.06
2023-04-07T17:48:59.868Z,99080.34
2023-04-07T17:51:27.674Z,99081.31
2023-04-07T17:53:54.697Z,99087.19
2023-04-07T17:56:21.680Z,99087.69
2023-04-07T17:58:48.658Z,99090.72
2023-04-07T18:01:16.864Z,99089.41
2023-04-07T18:03:43.902Z,99092.78
2023-04-07T18:06:16.984Z,99104.13
2023-04-07T18:08:47.638Z,99108.25
2023-04-07T18:11:15.089Z,99106.19
2023-04-07T18:13:41.849Z,99111.38
2023-04-07T18:16:11.530Z,99120.75
2023-04-07T18:18:38.189Z,99116.44
2023-04-07T18:21:06.671Z,99115.56
2023-04-07T18:23:33.790Z,99120.50
2023-04-07T18:26:05.199Z,99127.97
2023-04-07T18:28:32.150Z,99126.97
2023-04-07T18:31:02.599Z,99138.16
2023-04-07T18:33:32.961Z,99141.28
2023-04-07T18:36:04.362Z,99145.47
2023-04-07T18:38:31.148Z,99148.78
2023-04-07T18:40:57.949Z,99152.34
2023-04-07T18:43:25.112Z,99156.66
2023-04-07T18:45:52.846Z,99160.50
2023-04-07T18:48:20.278Z,99159.03
2023-04-07T18:50:54.655Z,99165.50
2023-04-07T18:53:22.513Z,99172.09
2023-04-07T18:55:50.015Z,99175.19
2023-04-07T18:58:16.864Z,99182.81
2023-04-07T19:00:44.509Z,99172.13
2023-04-07T19:03:11.932Z,99185.56
2023-04-07T19:05:42.297Z,99184.09
2023-04-07T19:08:09.288Z,99183.50
2023-04-07T19:10:36.062Z,99188.84
2023-04-07T19:13:03.175Z,99187.25
2023-04-07T19:15:34.486Z,99192.06
2023-04-07T19:18:02.492Z,99187.72
2023-04-07T19:20:33.785Z,99193.97
2023-04-07T19:23:01.607Z,99201.63
2023-04-07T19:25:28.233Z,99203.00
2023-04-07T19:27:54.911Z,99207.75
2023-04-07T19:30:21.778Z,99204.81
2023-04-07T19:32:48.654Z,99211.34
2023-04-07T19:35:16.287Z,99218.09
2023-04-07T19:37:42.988Z,99213.16
2023-04-07T19:40:10.167Z,99213.16
2023-04-07T19:42:38.072Z,99217.59
2023-04-07T19:45:08.076Z,99221.06
2023-04-07T19:47:35.890Z,99224.31
2023-04-07T19:50:04.029Z,99224.56
2023-04-07T19:52:32.097Z,99232.78
2023-04-07T19:54:59.828Z,99227.38
2023-04-07T19:57:27.902Z,99235.09
2023-04-07T19:59:54.534Z,99240.78
2023-04-07T20:02:21.766Z,99244.16
2023-04-07T20:04:48.811Z,99239.91
2023-04-07T20:07:15.706Z,99245.59
2023-04-07T20:09:42.367Z,99246.00
2023-04-07T20:12:09.119Z,99250.28
2023-04-07T20:14:36.046Z,99252.78
2023-04-07T20:17:02.847Z,99255.16
2023-04-07T20:19:29.552Z,99251.31
2023-04-07T20:21:56.635Z,99258.91
2023-04-07T20:24:23.211Z,99255.72
2023-04-07T20:26:49.843Z,99257.13
2023-04-07T20:29:16.693Z,99254.50
2023-04-07T20:31:44.149Z,99259.31
2023-04-07T20:34:10.763Z,99254.16
2023-04-07T20:36:37.433Z,99263.03
2023-04-07T20:39:04.292Z,99260.97
2023-04-07T20:41:31.212Z,99261.81
2023-04-07T20:43:58.698Z,99265.19
2023-04-07T20:46:25.401Z,99269.91
2023-04-07T20:48:52.825Z,99277.06
2023-04-07T20:51:19.484Z,99279.50
2023-04-07T20:53:46.110Z,99280.06
2023-04-07T20:56:12.821Z,99285.09
2023-04-07T20:58:39.530Z,99282.75
2023-04-07T21:01:06.266Z,99294.56
2023-04-07T21:03:33.057Z,99294.97
2023-04-07T21:05:59.725Z,99293.09
2023-04-07T21:08:26.573Z,99295.72
2023-04-07T21:10:53.438Z,99296.88
2023-04-07T21:13:21.224Z,99301.19
2023-04-07T21:15:48.310Z,99299.88
2023-04-07T21:18:15.108Z,99303.25
2023-04-07T21:20:41.894Z,99305.31
2023-04-07T21:23:08.721Z,99299.88
2023-04-07T21:25:38.345Z,99307.00
2023-04-07T21:28:05.715Z,99303.06
2023-04-07T21:30:33.259Z,99302.41
2023-04-07T21:33:00.118Z,99307.84
2023-04-07T21:35:28.806Z,99303.16
2023-04-07T21:37:56.419Z,99308.47
2023-04-07T21:40:23.101Z,99314.81
2023-04-07T21:42:52.031Z,99308.63
2023-04-07T21:45:19.633Z,99310.41
2023-04-07T21:47:46.744Z,99315.91
2023-04-07T21:50:13.709Z,99315.53
2023-04-07T21:52:41.280Z,99317.25
2023-04-07T21:55:10.070Z,99319.03
2023-04-07T21:57:36.925Z,99320.81
2023-04-07T22:00:04.127Z,99321.72
2023-04-07T22:02:31.051Z,99322.50
2023-04-07T22:04:57.964Z,99325.41
2023-04-07T22:07:24.796Z,99328.41
2023-04-07T22:09:51.430Z,99329.97
2023-04-07T22:12:18.094Z,99327.00
2023-04-07T22:14:45.403Z,99328.59
2023-04-07T22:17:12.003Z,99338.44
2023-04-07T22:19:38.643Z,99334.59
2023-04-07T22:22:07.730Z,99335.28
2023-04-07T22:24:35.175Z,99330.41
2023-04-07T22:27:02.293Z,99335.25
2023-04-07T22:29:29.060Z,99341.34
2023-04-07T22:31:55.762Z,99341.34
2023-04-07T22:34:22.460Z,99344.84
2023-04-07T22:36:49.087Z,99345.03
2023-04-07T22:39:15.716Z,99349.31
2023-04-07T22:41:42.360Z,99354.00
2023-04-07T22:44:09.019Z,99353.00
2023-04-07T22:46:35.899Z,99355.88
2023-04-07T22:49:02.891Z,99357.56
2023-04-07T22:51:29.546Z,99356.63
2023-04-07T22:53:57.243Z,99356.63
2023-04-07T22:56:24.338Z,99353.84
2023-04-07T22:58:51.591Z,99352.22
2023-04-07T23:01:18.613Z,99351.38
2023-04-07T23:03:45.505Z,99352.81
2023-04-07T23:06:12.154Z,99350.00
2023-04-07T23:08:38.801Z,99354.44
2023-04-07T23:11:09.251Z,99358.50
2023-04-07T23:13:35.923Z,99359.47
2023-04-07T23:16:03.942Z,99355.56
2023-04-07T23:18:31.565Z,99357.69
2023-04-07T23:20:58.251Z,99367.19
2023-04-07T23:23:24.922Z,99368.72
2023-04-07T23:25:51.680Z,99370.41
2023-04-07T23:28:18.336Z,99366.34
2023-04-07T23:30:44.965Z,99369.81
2023-04-07T23:33:12.622Z,99372.53
2023-04-07T23:35:39.279Z,99371.69
2023-04-07T23:38:08.815Z,99373.47
2023-04-07T23:40:35.528Z,99371.03
2023-04-07T23:43:02.251Z,99367.91
2023-04-07T23:45:29.224Z,99370.41
2023-04-07T23:47:56.094Z,99366.19
2023-04-07T23:50:23.109Z,99366.19
2023-04-07T23:52:49.737Z,99362.13
2023-04-07T23:55:16.454Z,99370.25
2023-04-07T23:57:43.321Z,99358.81
